Time;durP1;ratioP1;P1;durP2;ratioP2;P2;SDS_P1;SDS_P2;PMS_P1;PMS_P2;Temp;Humidity;BMP_temperature;BMP_pressure;BME280_temperature;BME280_humidity;BME280_pressure;Samples;Min_cycle;Max_cycle;Signal;HPM_P1;HPM_P2
2024/01/25 00:01:32;;;;;;;13.30;6.18;;;10.40;99.90;;;;;;4919446;29;20795;-80
2024/01/25 00:03:59;;;;;;;12.27;4.22;;;10.40;99.90;;;;;;4919343;29;21054;-80
2024/01/25 00:06:27;;;;;;;18.35;8.77;;;10.40;99.90;;;;;;4915493;29;20236;-76
2024/01/25 00:08:54;;;;;;;16.17;6.50;;;10.40;99.90;;;;;;4917948;29;20627;-80
2024/01/25 00:11:34;;;;;;;20.13;7.43;;;10.40;99.90;;;;;;4919293;29;20707;-77
2024/01/25 00:14:02;;;;;;;16.25;7.25;;;10.40;99.90;;;;;;4919418;29;20582;-79
2024/01/25 00:16:31;;;;;;;16.60;6.07;;;10.40;99.90;;;;;;4909493;29;20234;-76
2024/01/25 00:18:58;;;;;;;17.58;5.60;;;10.30;99.90;;;;;;4918716;29;20229;-77
2024/01/25 00:21:25;;;;;;;16.77;5.40;;;10.40;99.90;;;;;;4919380;29;20671;-76
2024/01/25 00:23:55;;;;;;;19.40;6.00;;;10.40;99.90;;;;;;4916943;29;20312;-81
2024/01/25 00:26:22;;;;;;;13.70;5.00;;;10.40;99.90;;;;;;4919768;29;20242;-76
2024/01/25 00:28:51;;;;;;;18.30;7.40;;;10.30;99.90;;;;;;4918902;29;20760;-79
2024/01/25 00:31:18;;;;;;;17.45;5.07;;;10.30;99.90;;;;;;4919022;29;20235;-79
2024/01/25 00:33:45;;;;;;;21.42;6.00;;;10.20;99.90;;;;;;4908944;29;20230;-76
2024/01/25 00:36:13;;;;;;;12.18;4.80;;;10.20;99.90;;;;;;4918498;29;20221;-76
2024/01/25 00:38:41;;;;;;;22.45;9.88;;;10.30;99.90;;;;;;4919430;29;20261;-79
2024/01/25 00:41:10;;;;;;;16.10;5.55;;;10.20;99.90;;;;;;4900206;29;20254;-76
2024/01/25 00:43:38;;;;;;;24.25;7.72;;;10.30;99.90;;;;;;4899977;29;20233;-76
2024/01/25 00:46:07;;;;;;;15.57;6.63;;;10.30;99.90;;;;;;4899592;29;20334;-76
2024/01/25 00:48:36;;;;;;;13.48;4.18;;;10.30;99.90;;;;;;4899785;29;20230;-76
2024/01/25 00:51:08;;;;;;;11.85;4.90;;;10.40;99.90;;;;;;4900592;29;20229;-79
2024/01/25 00:53:37;;;;;;;17.33;7.57;;;10.30;99.90;;;;;;4899920;29;20234;-76
2024/01/25 00:56:07;;;;;;;21.15;6.50;;;10.30;99.90;;;;;;4899669;29;20313;-79
2024/01/25 01:01:31;;;;;;;15.43;7.70;;;10.40;99.90;;;;;;4899687;29;20287;-76
2024/01/25 01:04:00;;;;;;;29.38;14.32;;;10.40;99.90;;;;;;4900322;29;20225;-79
2024/01/25 01:06:35;;;;;;;12.40;4.95;;;10.30;99.90;;;;;;4903354;29;20223;-79
2024/01/25 01:09:03;;;;;;;9.07;3.97;;;10.30;99.90;;;;;;4917650;29;20224;-77
2024/01/25 01:11:30;;;;;;;13.02;4.22;;;10.30;99.90;;;;;;4900581;29;20544;-78
2024/01/25 01:14:01;;;;;;;10.85;3.97;;;10.20;99.90;;;;;;4903640;29;20228;-80
2024/01/25 01:16:32;;;;;;;14.13;4.97;;;10.20;99.90;;;;;;4919027;29;20327;-78
2024/01/25 01:19:07;;;;;;;16.17;5.07;;;10.20;99.90;;;;;;4916387;29;20240;-77
2024/01/25 01:21:38;;;;;;;12.38;4.50;;;10.20;99.90;;;;;;4918630;29;20240;-77
2024/01/25 01:24:06;;;;;;;13.63;5.22;;;10.20;99.90;;;;;;4900222;29;20226;-79
2024/01/25 01:26:35;;;;;;;15.00;5.13;;;10.20;99.90;;;;;;4899470;29;20637;-76
2024/01/25 01:29:03;;;;;;;24.65;8.63;;;10.20;99.90;;;;;;4899113;29;20234;-79
2024/01/25 01:31:31;;;;;;;23.85;6.57;;;10.10;99.90;;;;;;4898458;29;20552;-79
2024/01/25 01:34:12;;;;;;;16.83;5.63;;;10.10;99.90;;;;;;4890324;29;20633;-77
2024/01/25 01:36:41;;;;;;;15.07;5.88;;;10.20;99.90;;;;;;4899417;29;20323;-76
2024/01/25 01:39:08;;;;;;;14.55;6.10;;;10.10;99.90;;;;;;4897253;29;20317;-79
2024/01/25 01:41:38;;;;;;;14.40;5.30;;;10.10;99.90;;;;;;4915137;29;20244;-76
2024/01/25 01:44:06;;;;;;;16.17;4.90;;;10.20;99.90;;;;;;4916424;29;20252;-80
2024/01/25 01:46:41;;;;;;;15.30;5.30;;;10.20;99.90;;;;;;4918713;29;20240;-77
2024/01/25 01:49:09;;;;;;;14.02;6.10;;;10.20;99.90;;;;;;4918111;29;20240;-77
2024/01/25 01:51:38;;;;;;;17.08;6.90;;;10.20;99.90;;;;;;4918237;29;20240;-77
2024/01/25 01:54:09;;;;;;;12.43;5.38;;;10.20;99.90;;;;;;4917242;29;20239;-77
2024/01/25 01:56:36;;;;;;;20.77;7.55;;;10.20;99.90;;;;;;4915023;29;20256;-80
2024/01/25 01:59:07;;;;;;;13.43;5.15;;;10.20;99.90;;;;;;4917866;29;20233;-77
2024/01/25 02:01:39;;;;;;;15.07;8.35;;;10.20;99.90;;;;;;4918686;29;20233;-77
2024/01/25 02:04:08;;;;;;;18.17;6.07;;;10.20;99.90;;;;;;4918011;29;20288;-77
2024/01/25 02:06:35;;;;;;;13.65;5.78;;;10.20;99.90;;;;;;4918317;29;20229;-80
2024/01/25 02:09:02;;;;;;;24.02;9.45;;;10.20;99.90;;;;;;4917972;29;20349;-79
2024/01/25 02:11:30;;;;;;;20.67;7.93;;;10.20;99.90;;;;;;4917709;29;20240;-77
2024/01/25 02:13:57;;;;;;;16.50;4.85;;;10.30;99.90;;;;;;4917056;29;20232;-77
2024/01/25 02:16:24;;;;;;;15.40;5.60;;;10.30;99.90;;;;;;4917194;29;20325;-77
2024/01/25 02:18:54;;;;;;;12.18;5.53;;;10.40;99.90;;;;;;4916972;29;20233;-78
2024/01/25 02:21:25;;;;;;;9.68;6.25;;;10.40;99.90;;;;;;4914644;29;20229;-77
2024/01/25 02:23:53;;;;;;;17.27;5.10;;;10.40;99.90;;;;;;4916165;29;20244;-78
2024/01/25 02:26:21;;;;;;;11.20;4.15;;;10.40;99.90;;;;;;4917032;29;20229;-77
2024/01/25 02:28:48;;;;;;;21.60;5.97;;;10.50;99.90;;;;;;4917205;29;20236;-79
2024/01/25 02:31:15;;;;;;;13.80;4.60;;;10.50;99.90;;;;;;4915808;29;20243;-76
2024/01/25 02:33:42;;;;;;;16.20;5.57;;;10.50;99.90;;;;;;4915598;29;20233;-77
2024/01/25 02:36:09;;;;;;;20.55;7.18;;;10.50;99.90;;;;;;4916345;29;20229;-77
2024/01/25 02:38:36;;;;;;;19.60;8.63;;;10.60;99.90;;;;;;4917336;29;20227;-79
2024/01/25 02:41:05;;;;;;;15.43;5.53;;;10.50;99.90;;;;;;4916628;29;20233;-79
2024/01/25 02:43:32;;;;;;;16.77;5.40;;;10.50;99.90;;;;;;4916696;29;20394;-76
2024/01/25 02:45:59;;;;;;;18.83;6.75;;;10.60;99.90;;;;;;4915362;29;20233;-76
2024/01/25 02:48:27;;;;;;;16.08;6.30;;;10.60;99.90;;;;;;4918018;29;20246;-77
2024/01/25 02:50:54;;;;;;;13.35;5.65;;;10.60;99.90;;;;;;4917859;29;20752;-77
2024/01/25 02:53:21;;;;;;;15.75;6.30;;;10.60;99.90;;;;;;4917285;29;20665;-77
2024/01/25 02:55:48;;;;;;;17.45;6.15;;;10.60;99.90;;;;;;4917449;29;20225;-77
2024/01/25 02:58:16;;;;;;;25.33;7.47;;;10.70;99.90;;;;;;4916502;29;20233;-75
2024/01/25 03:00:43;;;;;;;13.88;5.57;;;10.60;99.90;;;;;;4917272;29;20701;-77
2024/01/25 03:03:10;;;;;;;16.10;7.32;;;10.60;99.90;;;;;;4916538;29;20236;-78
2024/01/25 03:05:37;;;;;;;15.68;5.18;;;10.60;99.90;;;;;;4916845;29;20233;-76
2024/01/25 03:08:05;;;;;;;16.42;5.50;;;10.60;99.90;;;;;;4916481;29;20221;-75
2024/01/25 03:10:32;;;;;;;17.33;5.30;;;10.50;99.90;;;;;;4916918;29;20225;-76
2024/01/25 03:12:59;;;;;;;14.35;4.88;;;10.40;99.90;;;;;;4916500;29;20237;-77
2024/01/25 03:15:29;;;;;;;18.20;4.70;;;10.40;99.90;;;;;;4917286;29;20249;-78
2024/01/25 03:17:56;;;;;;;21.90;5.53;;;10.40;99.90;;;;;;4914878;29;20225;-78
2024/01/25 03:20:23;;;;;;;18.30;6.93;;;10.40;99.90;;;;;;4916069;29;20328;-78
2024/01/25 03:22:52;;;;;;;17.92;8.15;;;10.30;99.90;;;;;;4917096;29;20309;-77
2024/01/25 03:25:20;;;;;;;17.67;5.60;;;10.30;99.90;;;;;;4916133;29;20256;-76
2024/01/25 03:27:47;;;;;;;14.48;5.63;;;10.30;99.90;;;;;;4916765;29;20240;-76
2024/01/25 03:30:14;;;;;;;15.10;6.18;;;10.30;99.90;;;;;;4907441;29;20226;-76
2024/01/25 03:32:43;;;;;;;18.00;5.45;;;10.20;99.90;;;;;;4920170;29;20285;-76
2024/01/25 03:35:10;;;;;;;22.63;7.40;;;10.20;99.90;;;;;;4919650;29;20226;-76
2024/01/25 03:37:37;;;;;;;20.25;5.65;;;10.20;99.90;;;;;;4920354;29;20561;-76
2024/01/25 03:40:05;;;;;;;17.98;5.97;;;10.10;99.90;;;;;;4919552;29;20240;-76
2024/01/25 03:42:32;;;;;;;15.20;5.22;;;10.10;99.90;;;;;;4919861;29;20316;-79
2024/01/25 03:44:59;;;;;;;11.65;4.53;;;10.10;99.90;;;;;;4919638;29;20234;-76
2024/01/25 03:47:26;;;;;;;16.60;6.07;;;10.10;99.90;;;;;;4919493;29;20225;-79
2024/01/25 03:49:54;;;;;;;16.67;4.85;;;10.10;99.90;;;;;;4919962;29;20221;-76
2024/01/25 03:52:21;;;;;;;15.23;4.45;;;10.10;99.90;;;;;;4919040;29;20233;-79
2024/01/25 03:54:48;;;;;;;22.08;6.95;;;10.20;99.90;;;;;;4920080;29;20259;-79
2024/01/25 03:57:15;;;;;;;19.88;4.80;;;10.20;99.90;;;;;;4919347;29;20233;-79
2024/01/25 03:59:42;;;;;;;13.93;4.82;;;10.20;99.90;;;;;;4919735;29;20226;-79
2024/01/25 04:02:10;;;;;;;17.17;6.50;;;10.20;99.90;;;;;;4919371;29;20240;-77
2024/01/25 04:04:37;;;;;;;16.70;7.68;;;10.20;99.90;;;;;;4919790;29;20316;-77
2024/01/25 04:07:06;;;;;;;16.42;5.20;;;10.30;99.90;;;;;;4919918;29;20226;-77
2024/01/25 04:09:33;;;;;;;12.77;4.10;;;10.20;99.90;;;;;;4919380;29;20687;-79
2024/01/25 04:12:01;;;;;;;16.35;5.00;;;10.20;99.90;;;;;;4919725;29;20736;-77
2024/01/25 04:14:28;;;;;;;14.45;4.45;;;10.30;99.90;;;;;;4918876;29;20309;-79
2024/01/25 04:16:55;;;;;;;13.52;4.70;;;10.30;99.90;;;;;;4919572;29;20236;-79
2024/01/25 04:19:22;;;;;;;17.10;4.90;;;10.30;99.90;;;;;;4919036;29;20243;-79
2024/01/25 04:21:49;;;;;;;15.43;5.85;;;10.20;99.90;;;;;;4919204;29;20300;-79
2024/01/25 04:24:17;;;;;;;15.90;4.45;;;10.20;99.90;;;;;;4917209;29;20252;-77
2024/01/25 04:26:44;;;;;;;22.60;6.35;;;10.20;99.90;;;;;;4919630;29;20225;-76
2024/01/25 04:29:11;;;;;;;14.85;4.60;;;10.20;99.90;;;;;;4918552;29;20229;-76
2024/01/25 04:31:45;;;;;;;11.77;5.18;;;10.10;99.90;;;;;;4919178;29;20245;-76
2024/01/25 04:34:12;;;;;;;16.38;6.30;;;10.10;99.90;;;;;;4918981;29;20229;-78
2024/01/25 04:36:39;;;;;;;14.65;4.90;;;10.20;99.90;;;;;;4919311;29;20229;-78
2024/01/25 04:39:06;;;;;;;13.18;5.20;;;10.20;99.90;;;;;;4919398;29;20221;-78
2024/01/25 04:41:34;;;;;;;15.60;4.35;;;10.10;99.90;;;;;;4918164;29;20232;-78
2024/01/25 04:44:02;;;;;;;17.80;3.90;;;10.10;99.90;;;;;;4918823;29;20251;-78
2024/01/25 04:46:35;;;;;;;21.25;6.25;;;10.00;99.90;;;;;;4918037;29;20673;-78
2024/01/25 04:49:02;;;;;;;18.08;4.63;;;10.00;99.90;;;;;;4919223;29;20273;-78
2024/01/25 04:51:29;;;;;;;28.73;5.03;;;10.00;99.90;;;;;;4918410;29;20566;-75
2024/01/25 04:53:56;;;;;;;15.75;6.80;;;10.00;99.90;;;;;;4919089;29;20240;-77
2024/01/25 04:56:24;;;;;;;13.18;4.68;;;10.00;99.90;;;;;;4918361;29;20325;-75
2024/01/25 04:58:52;;;;;;;15.45;4.65;;;10.00;99.90;;;;;;4919304;29;20249;-79
2024/01/25 05:01:19;;;;;;;14.57;3.85;;;9.90;99.90;;;;;;4918344;29;20233;-76
2024/01/25 05:03:46;;;;;;;9.38;4.35;;;9.90;99.90;;;;;;4918819;29;20229;-78
2024/01/25 05:06:13;;;;;;;19.95;4.80;;;9.90;99.90;;;;;;4918568;29;20229;-77
2024/01/25 05:08:43;;;;;;;17.40;4.78;;;9.90;99.90;;;;;;4918115;29;20240;-77
2024/01/25 05:11:10;;;;;;;25.60;6.53;;;9.90;99.90;;;;;;4908391;29;20312;-77
2024/01/25 05:13:38;;;;;;;10.55;4.43;;;10.00;99.90;;;;;;4917759;29;20233;-77
2024/01/25 05:16:07;;;;;;;14.55;4.15;;;10.00;99.90;;;;;;4918264;29;20237;-77
2024/01/25 05:18:34;;;;;;;13.02;4.78;;;10.00;99.90;;;;;;4917906;29;20237;-77
2024/01/25 05:21:01;;;;;;;17.70;4.20;;;10.00;99.90;;;;;;4918322;29;20698;-77
2024/01/25 05:23:28;;;;;;;11.20;4.43;;;10.10;99.90;;;;;;4917544;29;20242;-77
2024/01/25 05:25:55;;;;;;;14.85;4.43;;;10.10;99.90;;;;;;4918127;29;20233;-77
2024/01/25 05:28:24;;;;;;;18.30;6.45;;;10.20;99.90;;;;;;4917837;29;20320;-77
2024/01/25 05:30:51;;;;;;;16.98;4.05;;;10.20;99.90;;;;;;4918331;29;20230;-77
2024/01/25 05:33:19;;;;;;;13.75;5.80;;;10.20;99.90;;;;;;4918099;29;20238;-77
2024/01/25 05:35:46;;;;;;;15.50;4.28;;;10.30;99.90;;;;;;4917630;29;20229;-77
2024/01/25 05:38:13;;;;;;;13.90;3.88;;;10.30;99.90;;;;;;4917764;29;20703;-77
2024/01/25 05:40:40;;;;;;;14.35;3.70;;;10.30;99.90;;;;;;4916906;29;20229;-78
2024/01/25 05:43:07;;;;;;;20.25;6.43;;;10.30;99.90;;;;;;4917539;29;20253;-79
2024/01/25 05:45:34;;;;;;;10.73;4.00;;;10.30;99.90;;;;;;4917428;29;20233;-79
2024/01/25 05:48:01;;;;;;;11.55;5.00;;;10.20;99.90;;;;;;4918015;29;20225;-80
2024/01/25 05:50:33;;;;;;;16.73;4.60;;;10.20;99.90;;;;;;4917187;29;20287;-80
2024/01/25 05:53:00;;;;;;;19.10;5.10;;;10.20;99.90;;;;;;4916877;29;20233;-77
2024/01/25 05:55:27;;;;;;;14.40;5.03;;;10.20;99.90;;;;;;4916890;29;20236;-78
2024/01/25 05:57:54;;;;;;;16.85;4.25;;;10.10;99.90;;;;;;4917810;29;20312;-77
2024/01/25 06:00:21;;;;;;;11.35;3.95;;;10.10;99.90;;;;;;4918048;29;20225;-80
2024/01/25 06:02:51;;;;;;;11.43;4.13;;;10.00;99.90;;;;;;4916785;29;20225;-77
2024/01/25 06:05:18;;;;;;;12.20;6.00;;;10.00;99.90;;;;;;4917278;29;20229;-79
2024/01/25 06:07:50;;;;;;;16.05;4.75;;;10.00;99.90;;;;;;4917220;29;20240;-77
2024/01/25 06:10:17;;;;;;;14.60;4.88;;;10.00;99.90;;;;;;4917616;29;20257;-77
2024/01/25 06:12:44;;;;;;;14.77;4.75;;;10.10;99.90;;;;;;4916836;29;20237;-78
2024/01/25 06:15:11;;;;;;;22.02;5.97;;;10.10;99.90;;;;;;4917705;29;20228;-77
2024/01/25 06:17:38;;;;;;;14.40;5.10;;;10.10;99.90;;;;;;4916382;29;20229;-78
2024/01/25 06:20:06;;;;;;;7.97;4.13;;;10.10;99.90;;;;;;4917568;29;20231;-80
2024/01/25 06:22:33;;;;;;;11.38;3.80;;;10.10;99.90;;;;;;4916973;29;20704;-77
2024/01/25 06:25:03;;;;;;;14.23;4.13;;;10.10;99.90;;;;;;4917353;29;20222;-78
2024/01/25 06:27:30;;;;;;;8.68;3.65;;;10.10;99.90;;;;;;4916474;29;20325;-80
2024/01/25 06:29:58;;;;;;;16.65;5.07;;;10.10;99.90;;;;;;4917041;29;20672;-79
2024/01/25 06:32:25;;;;;;;13.10;4.00;;;10.10;99.90;;;;;;4916906;29;20328;-77
2024/01/25 06:34:53;;;;;;;14.82;4.32;;;10.10;99.90;;;;;;4916708;29;20235;-75
2024/01/25 06:37:20;;;;;;;15.35;5.28;;;10.10;99.90;;;;;;4917183;29;20672;-76
2024/01/25 06:39:47;;;;;;;18.63;4.85;;;10.10;99.90;;;;;;4915806;29;20231;-76
2024/01/25 06:42:16;;;;;;;12.07;3.45;;;10.10;99.90;;;;;;4916733;29;20668;-76
2024/01/25 06:44:44;;;;;;;10.07;4.30;;;10.20;99.90;;;;;;4916614;29;20548;-76
2024/01/25 06:47:11;;;;;;;14.80;4.45;;;10.10;99.90;;;;;;4917000;29;20661;-75
2024/01/25 06:49:38;;;;;;;12.27;4.40;;;10.00;99.90;;;;;;4916376;29;20232;-76
2024/01/25 06:52:07;;;;;;;18.73;4.05;;;10.10;99.90;;;;;;4917832;29;20247;-76
2024/01/25 06:54:34;;;;;;;12.00;4.50;;;10.00;99.90;;;;;;4916902;29;20284;-76
2024/01/25 06:57:02;;;;;;;11.75;4.53;;;10.00;99.90;;;;;;4917306;29;20225;-77
2024/01/25 06:59:30;;;;;;;16.98;4.75;;;10.00;99.90;;;;;;4917991;29;20736;-76
2024/01/25 07:01:58;;;;;;;14.85;4.22;;;10.00;99.90;;;;;;4917956;29;20229;-77
2024/01/25 07:04:25;;;;;;;16.50;6.45;;;10.00;99.90;;;;;;4923992;29;20232;-76
2024/01/25 07:06:52;;;;;;;14.80;4.28;;;10.00;99.90;;;;;;4926554;29;20668;-77
2024/01/25 07:09:19;;;;;;;15.20;4.60;;;10.00;99.90;;;;;;4925696;29;20249;-77
2024/01/25 07:11:46;;;;;;;8.00;3.83;;;9.90;99.90;;;;;;4924621;29;20225;-77
2024/01/25 07:14:14;;;;;;;19.60;4.15;;;10.00;99.90;;;;;;4926675;29;20232;-76
2024/01/25 07:16:45;;;;;;;11.70;3.60;;;9.90;99.90;;;;;;4924765;29;20230;-76
2024/01/25 07:19:12;;;;;;;9.52;3.50;;;10.00;99.90;;;;;;4921908;29;20235;-77
2024/01/25 07:21:40;;;;;;;9.88;4.57;;;10.00;99.90;;;;;;4923785;29;20233;-77
2024/01/25 07:24:07;;;;;;;8.30;3.97;;;10.00;99.90;;;;;;4921833;29;20233;-77
2024/01/25 07:26:36;;;;;;;8.88;3.38;;;10.10;99.90;;;;;;4924511;29;20239;-77
2024/01/25 07:29:03;;;;;;;16.13;3.95;;;10.00;99.90;;;;;;4920901;29;20281;-78
2024/01/25 07:31:30;;;;;;;11.82;4.32;;;10.00;99.90;;;;;;4921070;29;20244;-78
2024/01/25 07:34:00;;;;;;;14.60;3.78;;;10.00;99.90;;;;;;4918770;29;20253;-78
2024/01/25 07:36:27;;;;;;;18.65;5.55;;;10.00;99.90;;;;;;4921125;29;20320;-76
2024/01/25 07:38:54;;;;;;;15.52;3.70;;;10.00;99.90;;;;;;4920257;29;20249;-76
2024/01/25 07:41:21;;;;;;;10.50;3.65;;;10.00;99.90;;;;;;4920761;29;20732;-76
2024/01/25 07:43:48;;;;;;;13.48;4.45;;;10.10;99.90;;;;;;4919631;29;20236;-77
2024/01/25 07:46:16;;;;;;;10.45;3.28;;;10.00;99.90;;;;;;4920593;29;20240;-76
2024/01/25 07:48:43;;;;;;;14.40;4.97;;;10.10;99.90;;;;;;4919395;29;20324;-76
2024/01/25 07:51:14;;;;;;;11.68;4.45;;;10.10;99.90;;;;;;4920238;29;20582;-76
2024/01/25 07:53:41;;;;;;;12.38;4.03;;;10.10;99.90;;;;;;4921175;29;20237;-77
2024/01/25 07:56:09;;;;;;;11.55;3.17;;;10.20;99.90;;;;;;4922474;29;20225;-76
2024/01/25 07:58:37;;;;;;;11.43;5.07;;;10.20;99.90;;;;;;4921666;29;20260;-76
2024/01/25 08:01:06;;;;;;;13.27;3.90;;;10.20;99.90;;;;;;4920247;29;20314;-76
2024/01/25 08:03:33;;;;;;;16.65;5.00;;;10.20;99.90;;;;;;4920079;29;20244;-77
2024/01/25 08:06:00;;;;;;;15.30;5.30;;;10.20;99.90;;;;;;4918474;29;20302;-76
2024/01/25 08:08:28;;;;;;;12.55;4.00;;;10.30;99.90;;;;;;4919995;29;20281;-76
2024/01/25 08:10:55;;;;;;;13.38;4.03;;;10.20;99.90;;;;;;4919706;29;20235;-77
2024/01/25 08:13:23;;;;;;;17.98;4.47;;;10.30;99.90;;;;;;4918751;29;20237;-77
2024/01/25 08:15:50;;;;;;;15.45;5.07;;;10.20;99.90;;;;;;4918934;29;20229;-76
2024/01/25 08:18:18;;;;;;;14.55;3.50;;;10.10;99.90;;;;;;4920177;29;20743;-77
2024/01/25 08:20:46;;;;;;;13.15;4.25;;;10.10;99.90;;;;;;4919568;29;20292;-77
2024/01/25 08:23:13;;;;;;;12.02;3.97;;;10.10;99.90;;;;;;4919826;29;20233;-76
2024/01/25 08:25:42;;;;;;;14.48;3.40;;;10.20;99.90;;;;;;4919941;29;20230;-77
2024/01/25 08:28:09;;;;;;;13.98;4.05;;;10.20;99.90;;;;;;4918816;29;20228;-77
2024/01/25 08:30:36;;;;;;;13.52;4.75;;;10.10;99.90;;;;;;4919592;29;20229;-76
2024/01/25 08:33:06;;;;;;;20.98;5.93;;;10.10;99.90;;;;;;4918817;29;20312;-76
2024/01/25 08:35:33;;;;;;;10.98;3.70;;;10.10;99.90;;;;;;4919463;29;20229;-77
2024/01/25 08:38:00;;;;;;;11.68;4.72;;;10.10;99.90;;;;;;4918904;29;20233;-77
2024/01/25 08:40:27;;;;;;;10.75;3.72;;;10.00;99.90;;;;;;4919686;29;20240;-76
2024/01/25 08:42:56;;;;;;;11.15;3.30;;;10.10;99.90;;;;;;4919108;29;20238;-76
2024/01/25 08:45:23;;;;;;;20.58;4.22;;;10.10;99.90;;;;;;4918683;29;20229;-76
2024/01/25 08:47:51;;;;;;;13.57;5.70;;;10.10;99.90;;;;;;4918495;29;20237;-76
2024/01/25 08:50:18;;;;;;;10.77;3.60;;;10.10;99.90;;;;;;4919148;29;20229;-76
2024/01/25 08:52:45;;;;;;;12.82;3.40;;;10.10;99.90;;;;;;4918960;29;20237;-76
2024/01/25 08:55:15;;;;;;;12.80;4.55;;;10.10;99.90;;;;;;4911154;29;20241;-78
2024/01/25 08:57:43;;;;;;;14.35;4.68;;;10.00;99.90;;;;;;4919424;29;20312;-76
2024/01/25 09:00:12;;;;;;;9.57;2.50;;;10.10;99.90;;;;;;4918755;29;20419;-76
2024/01/25 09:02:40;;;;;;;13.38;4.97;;;10.10;99.90;;;;;;4918874;29;20241;-77
2024/01/25 09:05:08;;;;;;;15.82;5.07;;;10.10;99.90;;;;;;4907638;29;20710;-76
2024/01/25 09:07:36;;;;;;;12.55;5.03;;;10.10;99.90;;;;;;4918705;29;20250;-77
2024/01/25 09:10:04;;;;;;;16.30;4.85;;;10.10;99.90;;;;;;4910879;29;20240;-77
2024/01/25 09:12:31;;;;;;;14.57;5.80;;;10.10;99.90;;;;;;4919251;29;20253;-76
2024/01/25 09:14:59;;;;;;;16.35;4.15;;;10.20;99.90;;;;;;4918283;29;20695;-78
2024/01/25 09:17:27;;;;;;;11.52;4.60;;;10.20;99.90;;;;;;4919035;29;20308;-79
2024/01/25 09:19:54;;;;;;;13.52;3.92;;;10.20;99.90;;;;;;4918693;29;20317;-77
2024/01/25 09:22:22;;;;;;;13.60;3.45;;;10.10;99.90;;;;;;4917505;29;20659;-77
2024/01/25 09:24:49;;;;;;;12.85;4.18;;;10.20;99.90;;;;;;4918129;29;20225;-76
2024/01/25 09:27:16;;;;;;;14.02;4.65;;;10.20;99.90;;;;;;4916782;29;20241;-80
2024/01/25 09:29:44;;;;;;;11.77;3.55;;;10.20;99.90;;;;;;4918858;29;20253;-79
2024/01/25 09:32:12;;;;;;;18.27;4.50;;;10.20;99.90;;;;;;4918289;29;20703;-79
2024/01/25 09:34:41;;;;;;;14.93;3.00;;;10.30;99.90;;;;;;4918202;29;20229;-79
2024/01/25 09:37:11;;;;;;;9.85;4.00;;;10.30;99.90;;;;;;4918093;29;20569;-78
2024/01/25 09:39:38;;;;;;;12.52;3.50;;;10.40;99.90;;;;;;4918808;29;20231;-76
2024/01/25 09:42:07;;;;;;;11.00;4.05;;;10.40;99.90;;;;;;4919747;29;20229;-79
2024/01/25 09:44:34;;;;;;;10.35;3.65;;;10.40;99.90;;;;;;4918707;29;20316;-79
2024/01/25 09:47:05;;;;;;;16.38;6.10;;;10.40;99.90;;;;;;4917230;29;20743;-79
2024/01/25 09:49:32;;;;;;;11.65;5.30;;;10.30;99.90;;;;;;4920582;29;20225;-78
2024/01/25 09:52:06;;;;;;;10.68;4.70;;;10.40;99.90;;;;;;4920588;29;20750;-77
2024/01/25 09:54:36;;;;;;;10.07;4.35;;;10.40;99.90;;;;;;4919727;29;20221;-75
2024/01/25 09:57:08;;;;;;;17.40;3.17;;;10.40;99.90;;;;;;4920123;29;20236;-77
2024/01/25 09:59:35;;;;;;;14.43;6.28;;;10.40;99.90;;;;;;4917749;29;20249;-77
2024/01/25 10:02:04;;;;;;;17.60;4.57;;;10.50;99.90;;;;;;4918887;29;20684;-77
2024/01/25 10:04:31;;;;;;;15.07;5.80;;;10.40;99.90;;;;;;4917747;29;20233;-77
2024/01/25 10:06:59;;;;;;;8.50;4.18;;;10.50;99.90;;;;;;4917500;29;20237;-77
2024/01/25 10:09:27;;;;;;;13.77;4.63;;;10.50;99.90;;;;;;4917380;29;20295;-77
2024/01/25 10:11:57;;;;;;;14.70;4.40;;;10.50;99.90;;;;;;4917656;29;20225;-77
2024/01/25 10:14:24;;;;;;;14.85;4.13;;;10.50;99.90;;;;;;4917075;29;20249;-77
2024/01/25 10:16:51;;;;;;;11.98;3.60;;;10.50;99.90;;;;;;4918705;29;20559;-77
2024/01/25 10:19:18;;;;;;;12.65;4.10;;;10.50;99.90;;;;;;4917539;29;20264;-79
2024/01/25 10:21:46;;;;;;;13.20;4.55;;;10.50;99.90;;;;;;4917718;29;20243;-78
2024/01/25 10:24:15;;;;;;;12.85;5.00;;;10.50;99.90;;;;;;4917967;29;20765;-79
2024/01/25 10:26:43;;;;;;;16.05;3.90;;;10.50;99.90;;;;;;4916982;29;20229;-79
2024/01/25 10:29:16;;;;;;;14.15;4.78;;;10.50;99.90;;;;;;4918083;29;20236;-78
2024/01/25 10:31:44;;;;;;;16.88;5.82;;;10.50;99.90;;;;;;4916796;29;20225;-77
2024/01/25 10:34:15;;;;;;;15.55;4.82;;;10.50;99.90;;;;;;4917595;29;20703;-77
2024/01/25 10:36:42;;;;;;;9.90;6.00;;;10.50;99.90;;;;;;4907280;29;20236;-79
2024/01/25 10:39:11;;;;;;;11.13;5.10;;;10.50;99.90;;;;;;4916927;29;20252;-76
2024/01/25 10:41:41;;;;;;;15.38;4.60;;;10.60;99.90;;;;;;4917100;29;20229;-79
2024/01/25 10:44:09;;;;;;;22.88;4.78;;;10.60;99.90;;;;;;4917013;29;20284;-77
2024/01/25 10:46:41;;;;;;;11.02;4.78;;;10.60;99.90;;;;;;4916322;29;20233;-77
2024/01/25 10:49:15;;;;;;;11.25;3.92;;;10.50;99.90;;;;;;4916903;29;20247;-78
2024/01/25 10:51:42;;;;;;;12.82;4.20;;;10.50;99.90;;;;;;4905633;29;20687;-77
2024/01/25 10:54:10;;;;;;;10.93;3.85;;;10.60;99.90;;;;;;4916604;29;20537;-79
2024/01/25 10:56:48;;;;;;;10.55;3.72;;;10.60;99.90;;;;;;4916448;29;20225;-79
2024/01/25 10:59:16;;;;;;;12.35;4.00;;;10.70;99.90;;;;;;4917712;29;20251;-77
2024/01/25 11:01:47;;;;;;;11.70;4.03;;;10.70;99.90;;;;;;4917090;29;20256;-79
2024/01/25 11:04:18;;;;;;;12.07;4.40;;;10.80;99.90;;;;;;4917305;29;20229;-79
2024/01/25 11:06:46;;;;;;;14.35;4.80;;;10.70;99.90;;;;;;4916367;29;20225;-79
2024/01/25 11:09:19;;;;;;;10.20;3.60;;;10.80;99.90;;;;;;4917045;29;20234;-78
2024/01/25 11:11:50;;;;;;;7.57;4.28;;;10.70;99.90;;;;;;4917017;29;20301;-79
2024/01/25 11:14:18;;;;;;;16.58;8.10;;;10.70;99.90;;;;;;4917021;29;20316;-79
2024/01/25 11:16:47;;;;;;;16.98;4.38;;;10.80;99.90;;;;;;4916233;29;20225;-77
2024/01/25 11:19:18;;;;;;;13.77;4.00;;;10.80;99.90;;;;;;4917437;29;20244;-79
2024/01/25 11:21:47;;;;;;;9.65;4.20;;;10.80;99.90;;;;;;4916130;29;20328;-79
2024/01/25 11:24:15;;;;;;;14.35;4.93;;;10.90;99.90;;;;;;4917662;29;20237;-79
2024/01/25 11:26:44;;;;;;;12.02;3.95;;;10.90;99.90;;;;;;4914947;29;20226;-78
2024/01/25 11:29:16;;;;;;;13.43;3.55;;;10.90;99.90;;;;;;4917002;29;20229;-77
2024/01/25 11:31:43;;;;;;;16.00;4.43;;;10.90;99.90;;;;;;4916149;29;20237;-77
2024/01/25 11:34:12;;;;;;;12.18;4.00;;;10.90;99.90;;;;;;4918889;29;20257;-79
2024/01/25 11:36:40;;;;;;;12.02;4.97;;;10.90;99.90;;;;;;4918797;29;20312;-77
2024/01/25 11:39:07;;;;;;;12.80;3.97;;;11.00;99.90;;;;;;4919536;29;20237;-76
2024/01/25 11:41:34;;;;;;;17.35;5.28;;;10.90;99.90;;;;;;4918212;29;20603;-77
2024/01/25 11:44:03;;;;;;;11.80;3.90;;;11.00;99.90;;;;;;4916538;29;20251;-77
2024/01/25 11:46:32;;;;;;;17.00;4.18;;;11.00;99.90;;;;;;4909389;29;20568;-79
2024/01/25 11:48:59;;;;;;;18.85;4.22;;;11.00;99.90;;;;;;4916831;29;20229;-75
2024/01/25 11:51:29;;;;;;;12.50;4.78;;;10.90;99.90;;;;;;4918819;29;20281;-77
2024/01/25 11:53:57;;;;;;;9.73;3.42;;;10.90;99.90;;;;;;4919650;29;20237;-79
2024/01/25 11:56:30;;;;;;;13.10;4.20;;;10.90;99.90;;;;;;4920109;29;20229;-75
2024/01/25 11:58:58;;;;;;;12.45;4.50;;;10.90;99.90;;;;;;4920048;29;20296;-77
2024/01/25 12:01:29;;;;;;;13.77;3.65;;;10.90;99.90;;;;;;4920692;29;20296;-79
2024/01/25 12:03:58;;;;;;;9.02;3.13;;;10.90;99.90;;;;;;4920449;29;20234;-76
2024/01/25 12:06:28;;;;;;;9.18;3.65;;;11.00;99.90;;;;;;4920628;29;20245;-76
2024/01/25 12:08:55;;;;;;;15.10;3.92;;;11.00;99.90;;;;;;4919174;29;20688;-76
2024/01/25 12:11:22;;;;;;;10.90;3.45;;;10.90;99.90;;;;;;4920581;29;20357;-76
2024/01/25 12:13:50;;;;;;;11.57;3.95;;;10.90;99.90;;;;;;4919953;29;20241;-76
2024/01/25 12:16:17;;;;;;;15.45;4.25;;;11.00;99.90;;;;;;4920236;29;20241;-76
2024/01/25 12:18:47;;;;;;;9.40;4.13;;;11.00;99.90;;;;;;4919266;29;20280;-76
2024/01/25 12:21:15;;;;;;;8.95;4.10;;;11.00;99.90;;;;;;4919790;29;20233;-77
2024/01/25 12:23:47;;;;;;;14.07;3.58;;;11.10;99.90;;;;;;4919610;29;20233;-78
2024/01/25 12:26:16;;;;;;;19.55;4.22;;;11.10;99.90;;;;;;4919803;29;20256;-78
2024/01/25 12:28:46;;;;;;;19.27;6.32;;;11.10;99.90;;;;;;4919154;29;20247;-78
2024/01/25 12:31:17;;;;;;;15.93;5.95;;;11.10;99.90;;;;;;4919486;29;20244;-77
2024/01/25 12:33:44;;;;;;;13.70;4.55;;;11.10;99.90;;;;;;4918681;29;20241;-77
2024/01/25 12:36:11;;;;;;;12.65;3.35;;;11.10;99.90;;;;;;4919240;29;20230;-76
2024/01/25 12:38:40;;;;;;;10.00;3.70;;;11.10;99.90;;;;;;4919794;29;20680;-79
2024/01/25 12:41:07;;;;;;;15.23;4.97;;;11.10;99.90;;;;;;4909750;29;20243;-77
2024/01/25 12:43:34;;;;;;;9.02;4.95;;;11.20;99.90;;;;;;4918923;29;20233;-77
2024/01/25 12:46:01;;;;;;;11.90;5.97;;;11.20;99.90;;;;;;4918213;29;20236;-77